createdAt,value
2019-03-06T00:00:00.916Z,982.59
2019-03-06T00:01:00.842Z,982.59
2019-03-06T00:02:00.832Z,982.62
2019-03-06T00:03:00.803Z,982.57
2019-03-06T00:04:00.794Z,982.59
2019-03-06T00:05:00.805Z,982.62
2019-03-06T00:06:00.772Z,982.60
2019-03-06T00:07:00.764Z,982.59
2019-03-06T00:08:00.772Z,982.62
2019-03-06T00:09:00.742Z,982.60
2019-03-06T00:10:00.732Z,982.53
2019-03-06T00:11:00.727Z,982.57
2019-03-06T00:12:00.748Z,982.54
2019-03-06T00:13:00.744Z,982.51
2019-03-06T00:14:00.715Z,982.49
2019-03-06T00:15:00.682Z,982.47
2019-03-06T00:16:00.675Z,982.42
2019-03-06T00:17:00.685Z,982.43
2019-03-06T00:18:00.687Z,982.39
2019-03-06T00:19:00.678Z,982.36
2019-03-06T00:20:00.677Z,982.35
2019-03-06T00:21:00.709Z,982.35
2019-03-06T00:22:00.609Z,982.31
2019-03-06T00:23:02.132Z,982.33
2019-03-06T00:24:00.658Z,982.30
2019-03-06T00:25:00.625Z,982.26
2019-03-06T00:26:00.596Z,982.26
2019-03-06T00:27:00.562Z,982.22
2019-03-06T00:28:00.630Z,982.19
2019-03-06T00:29:00.613Z,982.23
2019-03-06T00:30:00.522Z,982.24
2019-03-06T00:31:00.557Z,982.19
2019-03-06T00:32:00.553Z,982.21
2019-03-06T00:33:00.526Z,982.23
2019-03-06T00:34:00.483Z,982.18
2019-03-06T00:35:00.521Z,982.16
2019-03-06T00:36:00.512Z,982.20
2019-03-06T00:37:00.477Z,982.22
2019-03-06T00:38:00.438Z,982.18
2019-03-06T00:39:00.444Z,982.18
2019-03-06T00:40:00.458Z,982.21
2019-03-06T00:41:00.410Z,982.18
2019-03-06T00:42:00.415Z,982.14
2019-03-06T00:43:00.382Z,982.13
2019-03-06T00:44:00.401Z,982.15
2019-03-06T00:45:00.457Z,982.13
2019-03-06T00:46:00.358Z,982.12
2019-03-06T00:47:00.355Z,982.15
2019-03-06T00:48:00.329Z,982.09
2019-03-06T00:49:00.325Z,982.10
2019-03-06T00:50:00.414Z,982.09
2019-03-06T00:51:00.383Z,982.09
2019-03-06T00:52:00.291Z,982.06
2019-03-06T00:53:00.310Z,982.08
2019-03-06T00:54:00.272Z,982.07
2019-03-06T00:55:00.385Z,982.07
2019-03-06T00:56:00.259Z,982.08
2019-03-06T00:57:00.268Z,982.06
2019-03-06T00:58:00.224Z,982.04
2019-03-06T00:59:00.224Z,982.03
2019-03-06T01:00:00.271Z,982.03
2019-03-06T01:01:00.201Z,982.03
2019-03-06T01:02:00.186Z,982.04
2019-03-06T01:03:00.258Z,982.05
2019-03-06T01:04:00.212Z,982.02
2019-03-06T01:05:00.304Z,981.99
2019-03-06T01:06:00.183Z,981.98
2019-03-06T01:07:00.159Z,981.97
2019-03-06T01:08:00.170Z,981.92
2019-03-06T01:09:00.291Z,981.90
2019-03-06T01:10:00.114Z,981.94
2019-03-06T01:11:00.103Z,981.94
2019-03-06T01:12:00.109Z,981.95
2019-03-06T01:13:00.115Z,981.95
2019-03-06T01:14:00.100Z,981.92
2019-03-06T01:15:00.084Z,981.94
2019-03-06T01:16:00.035Z,981.96
2019-03-06T01:17:00.123Z,981.94
2019-03-06T01:18:00.028Z,981.94
2019-03-06T01:19:00.087Z,981.97
2019-03-06T01:19:59.992Z,981.98
2019-03-06T01:20:59.997Z,982.01
2019-03-06T01:21:59.986Z,981.96
2019-03-06T01:22:59.968Z,981.99
2019-03-06T01:23:59.977Z,981.94
2019-03-06T01:24:59.979Z,981.94
2019-03-06T01:25:59.950Z,981.96
2019-03-06T01:27:00.013Z,981.97
2019-03-06T01:27:59.952Z,981.96
2019-03-06T01:28:59.943Z,981.96
2019-03-06T01:29:59.967Z,981.86
2019-03-06T01:30:59.878Z,981.90
2019-03-06T01:31:59.906Z,981.88
2019-03-06T01:32:59.871Z,981.85
2019-03-06T01:33:59.932Z,981.84
2019-03-06T01:34:59.903Z,981.80
2019-03-06T01:35:59.863Z,981.82
2019-03-06T01:36:59.848Z,981.76
2019-03-06T01:37:59.814Z,981.77
2019-03-06T01:38:59.875Z,981.77
2019-03-06T01:39:59.821Z,981.74
2019-03-06T01:40:59.884Z,981.69
2019-03-06T01:41:59.790Z,981.71
2019-03-06T01:42:59.787Z,981.70
2019-03-06T01:43:59.794Z,981.69
2019-03-06T01:44:59.794Z,981.65
2019-03-06T01:45:59.806Z,981.63
2019-03-06T01:46:59.716Z,981.64
2019-03-06T01:47:59.742Z,981.63
2019-03-06T01:48:59.734Z,981.62
2019-03-06T01:49:59.673Z,981.61
2019-03-06T01:50:59.766Z,981.57
2019-03-06T01:51:59.706Z,981.51
2019-03-06T01:52:59.699Z,981.53
2019-03-06T01:53:59.692Z,981.53
2019-03-06T01:54:59.642Z,981.50
2019-03-06T01:55:59.668Z,981.44
2019-03-06T01:56:59.599Z,981.44
2019-03-06T01:57:59.595Z,981.48
2019-03-06T01:58:59.630Z,981.43
2019-03-06T01:59:59.618Z,981.38
2019-03-06T02:00:59.619Z,981.36
2019-03-06T02:01:59.549Z,981.37
2019-03-06T02:02:59.548Z,981.38
2019-03-06T02:03:59.546Z,981.34
2019-03-06T02:04:59.530Z,981.32
2019-03-06T02:05:59.517Z,981.32
2019-03-06T02:06:59.512Z,981.29
2019-03-06T02:07:59.542Z,981.24
2019-03-06T02:08:59.834Z,981.25
2019-03-06T02:09:59.501Z,981.25
2019-03-06T02:10:59.468Z,981.24
2019-03-06T02:11:59.451Z,981.23
2019-03-06T02:12:59.438Z,981.28
2019-03-06T02:13:59.427Z,981.25
2019-03-06T02:14:59.425Z,981.22
2019-03-06T02:15:59.460Z,981.21
2019-03-06T02:16:59.400Z,981.19
2019-03-06T02:17:59.392Z,981.24
2019-03-06T02:18:59.401Z,981.19
2019-03-06T02:19:59.356Z,981.20
2019-03-06T02:20:59.374Z,981.21
2019-03-06T02:21:59.379Z,981.19
2019-03-06T02:22:59.342Z,981.18
2019-03-06T02:23:59.368Z,981.18
2019-03-06T02:24:59.348Z,981.17
2019-03-06T02:25:59.327Z,981.17
2019-03-06T02:26:59.311Z,981.20
2019-03-06T02:27:59.392Z,981.21
2019-03-06T02:28:59.307Z,981.22
2019-03-06T02:29:59.292Z,981.22
2019-03-06T02:30:59.271Z,981.13
2019-03-06T02:31:59.266Z,981.15
2019-03-06T02:32:59.231Z,981.14
2019-03-06T02:33:59.232Z,981.09
2019-03-06T02:34:59.301Z,981.10
2019-03-06T02:35:59.190Z,981.07
2019-03-06T02:36:59.187Z,981.00
2019-03-06T02:37:59.223Z,981.05
2019-03-06T02:38:59.185Z,980.99
2019-03-06T02:39:59.185Z,980.93
2019-03-06T02:40:59.214Z,980.93
2019-03-06T02:41:59.184Z,980.89
2019-03-06T02:42:59.109Z,980.86
2019-03-06T02:43:59.113Z,980.78
2019-03-06T02:44:59.174Z,980.77
2019-03-06T02:45:59.098Z,980.76
2019-03-06T02:46:59.124Z,980.77
2019-03-06T02:47:59.082Z,980.69
2019-03-06T02:48:59.063Z,980.65
2019-03-06T02:49:59.062Z,980.70
2019-03-06T02:50:59.194Z,980.65
2019-03-06T02:51:59.102Z,980.68
2019-03-06T02:52:59.047Z,980.65
2019-03-06T02:53:58.997Z,980.65
2019-03-06T02:54:58.992Z,980.66
2019-03-06T02:55:59.024Z,980.61
2019-03-06T02:56:59.023Z,980.61
2019-03-06T02:57:58.953Z,980.63
2019-03-06T02:58:58.950Z,980.58
2019-03-06T02:59:59.014Z,980.59
2019-03-06T03:00:58.948Z,980.61
2019-03-06T03:01:58.965Z,980.60
2019-03-06T03:02:58.939Z,980.58
2019-03-06T03:03:58.987Z,980.58
2019-03-06T03:04:58.936Z,980.57
2019-03-06T03:05:58.871Z,980.53
2019-03-06T03:06:58.971Z,980.52
2019-03-06T03:07:58.872Z,980.50
2019-03-06T03:08:58.872Z,980.48
2019-03-06T03:09:58.860Z,980.45
2019-03-06T03:10:58.829Z,980.45
2019-03-06T03:11:58.828Z,980.45
2019-03-06T03:12:58.842Z,980.42
2019-03-06T03:13:58.787Z,980.44
2019-03-06T03:14:58.783Z,980.48
2019-03-06T03:15:58.809Z,980.43
2019-03-06T03:16:58.748Z,980.37
2019-03-06T03:17:58.742Z,980.40
2019-03-06T03:18:58.750Z,980.33
2019-03-06T03:19:58.751Z,980.29
2019-03-06T03:20:58.808Z,980.25
2019-03-06T03:21:58.741Z,980.30
2019-03-06T03:22:58.738Z,980.30
2019-03-06T03:23:58.779Z,980.26
2019-03-06T03:24:58.669Z,980.24
2019-03-06T03:25:58.710Z,980.28
2019-03-06T03:26:58.703Z,980.27
2019-03-06T03:27:58.714Z,980.24
2019-03-06T03:28:58.720Z,980.28
2019-03-06T03:29:58.653Z,980.26
2019-03-06T03:30:58.652Z,980.28
2019-03-06T03:31:58.629Z,980.28
2019-03-06T03:32:58.616Z,980.27
2019-03-06T03:33:58.635Z,980.21
2019-03-06T03:34:58.581Z,980.20
2019-03-06T03:35:58.553Z,980.17
2019-03-06T03:36:58.585Z,980.15
2019-03-06T03:37:58.553Z,980.13
2019-03-06T03:38:58.541Z,980.14
2019-03-06T03:39:58.588Z,980.11
2019-03-06T03:40:58.572Z,980.14
2019-03-06T03:41:58.563Z,980.12
2019-03-06T03:42:58.561Z,980.10
2019-03-06T03:43:58.464Z,980.10
2019-03-06T03:44:58.488Z,980.09
2019-03-06T03:45:58.499Z,980.09
2019-03-06T03:46:58.487Z,980.12
2019-03-06T03:47:58.430Z,980.12
2019-03-06T03:48:58.554Z,980.08
2019-03-06T03:49:58.456Z,980.06
2019-03-06T03:50:58.419Z,980.08
2019-03-06T03:51:58.444Z,980.02
2019-03-06T03:52:58.389Z,980.09
2019-03-06T03:53:58.353Z,980.06
2019-03-06T03:54:58.669Z,980.04
2019-03-06T03:55:58.350Z,979.99
2019-03-06T03:56:58.347Z,980.03
2019-03-06T03:57:58.407Z,979.96
2019-03-06T03:58:58.302Z,979.98
2019-03-06T03:59:58.369Z,979.99
2019-03-06T04:00:58.368Z,980.01
2019-03-06T04:01:58.285Z,979.99
2019-03-06T04:02:58.282Z,980.02
2019-03-06T04:03:58.268Z,980.00
2019-03-06T04:04:58.260Z,979.96
2019-03-06T04:05:58.266Z,979.95
2019-03-06T04:06:58.229Z,979.91
2019-03-06T04:07:58.272Z,979.87
2019-03-06T04:08:58.226Z,979.88
2019-03-06T04:09:58.228Z,979.86
2019-03-06T04:10:58.187Z,979.83
2019-03-06T04:11:58.238Z,979.81
2019-03-06T04:12:58.213Z,979.80
2019-03-06T04:13:58.169Z,979.81
2019-03-06T04:14:58.150Z,979.78
2019-03-06T04:15:58.507Z,979.76
2019-03-06T04:16:58.151Z,979.70
2019-03-06T04:17:58.195Z,979.64
2019-03-06T04:18:58.107Z,979.62
2019-03-06T04:19:58.094Z,979.62
2019-03-06T04:20:58.133Z,979.60
2019-03-06T04:21:58.097Z,979.58
2019-03-06T04:22:58.068Z,979.52
2019-03-06T04:23:58.079Z,979.53
2019-03-06T04:24:58.029Z,979.50
2019-03-06T04:25:58.159Z,979.46
2019-03-06T04:26:58.113Z,979.46
2019-03-06T04:27:58.058Z,979.46
2019-03-06T04:28:58.003Z,979.53
2019-03-06T04:29:58.024Z,979.58
2019-03-06T04:30:58.028Z,979.57
2019-03-06T04:31:58.031Z,979.60
2019-03-06T04:32:57.952Z,979.65
2019-03-06T04:33:58.000Z,979.71
2019-03-06T04:34:57.971Z,979.74
2019-03-06T04:35:57.952Z,979.71
2019-03-06T04:36:58.133Z,979.72
2019-03-06T04:37:57.966Z,979.68
2019-03-06T04:38:57.938Z,979.64
2019-03-06T04:39:57.894Z,979.65
2019-03-06T04:40:57.864Z,979.67
2019-03-06T04:41:57.861Z,979.66
2019-03-06T04:42:57.890Z,979.66
2019-03-06T04:43:57.912Z,979.68
2019-03-06T04:44:57.830Z,979.65
2019-03-06T04:45:57.851Z,979.63
2019-03-06T04:46:57.900Z,979.70
2019-03-06T04:47:57.783Z,979.70
2019-03-06T04:48:57.803Z,979.63
2019-03-06T04:49:57.786Z,979.66
2019-03-06T04:50:57.799Z,979.67
2019-03-06T04:51:57.739Z,979.70
2019-03-06T04:52:57.739Z,979.64
2019-03-06T04:53:57.780Z,979.72
2019-03-06T04:54:57.724Z,979.68
2019-03-06T04:55:57.749Z,979.70
2019-03-06T04:56:57.735Z,979.68
2019-03-06T04:57:57.722Z,979.65
2019-03-06T04:58:57.691Z,979.54
2019-03-06T04:59:57.697Z,979.54
2019-03-06T05:00:57.694Z,979.49
2019-03-06T05:01:57.700Z,979.45
2019-03-06T05:02:57.656Z,979.46
2019-03-06T05:03:57.712Z,979.45
2019-03-06T05:04:57.677Z,979.46
2019-03-06T05:05:57.641Z,979.42
2019-03-06T05:06:57.605Z,979.33
2019-03-06T05:07:57.652Z,979.26
2019-03-06T05:08:57.579Z,979.26
2019-03-06T05:09:57.593Z,979.25
2019-03-06T05:10:57.571Z,979.22
2019-03-06T05:11:57.578Z,979.16
2019-03-06T05:12:57.571Z,979.14
2019-03-06T05:13:57.564Z,979.13
2019-03-06T05:14:57.499Z,979.09
2019-03-06T05:15:57.591Z,979.05
2019-03-06T05:16:57.524Z,979.08
2019-03-06T05:17:57.505Z,979.11
2019-03-06T05:18:57.550Z,979.12
2019-03-06T05:19:57.494Z,979.14
2019-03-06T05:20:57.485Z,979.12
2019-03-06T05:21:57.493Z,979.09
2019-03-06T05:22:57.482Z,979.00
2019-03-06T05:23:57.418Z,979.06
2019-03-06T05:24:57.469Z,979.00
2019-03-06T05:25:57.428Z,978.98
2019-03-06T05:26:57.534Z,979.02
2019-03-06T05:27:57.399Z,979.03
2019-03-06T05:28:57.389Z,979.05
2019-03-06T05:29:57.373Z,979.01
2019-03-06T05:30:57.366Z,979.00
2019-03-06T05:31:57.359Z,979.01
2019-03-06T05:32:57.370Z,979.02
2019-03-06T05:33:57.317Z,979.02
2019-03-06T05:34:57.295Z,979.02
2019-03-06T05:35:57.293Z,979.03
2019-03-06T05:36:57.266Z,979.09
2019-03-06T05:37:57.251Z,979.09
2019-03-06T05:38:57.323Z,979.07
2019-03-06T05:39:57.269Z,979.06
2019-03-06T05:40:57.220Z,979.11
2019-03-06T05:41:57.255Z,979.03
2019-03-06T05:42:57.257Z,978.99
2019-03-06T05:43:57.207Z,978.98
2019-03-06T05:44:57.178Z,979.01
2019-03-06T05:45:57.210Z,978.96
2019-03-06T05:46:57.230Z,978.93
2019-03-06T05:47:57.147Z,978.94
2019-03-06T05:48:57.242Z,978.97
2019-03-06T05:49:57.200Z,978.95
2019-03-06T05:50:57.139Z,978.93
2019-03-06T05:51:57.116Z,978.87
2019-03-06T05:52:57.095Z,978.82
2019-03-06T05:53:57.153Z,978.80
2019-03-06T05:54:57.084Z,978.77
2019-03-06T05:55:57.101Z,978.76
2019-03-06T05:56:57.124Z,978.75
2019-03-06T05:57:57.040Z,978.63
2019-03-06T05:58:57.125Z,978.62
2019-03-06T05:59:57.083Z,978.58
2019-03-06T06:00:57.058Z,978.54
2019-03-06T06:01:57.037Z,978.51
2019-03-06T06:02:56.984Z,978.44
2019-03-06T06:03:57.035Z,978.46
2019-03-06T06:04:57.006Z,978.41
2019-03-06T06:05:56.999Z,978.41
2019-03-06T06:06:57.022Z,978.40
2019-03-06T06:07:56.935Z,978.39
2019-03-06T06:08:56.965Z,978.40
2019-03-06T06:09:56.934Z,978.34
2019-03-06T06:10:57.028Z,978.37
2019-03-06T06:11:56.895Z,978.36
2019-03-06T06:12:56.962Z,978.36
2019-03-06T06:13:56.926Z,978.38
2019-03-06T06:14:56.860Z,978.37
2019-03-06T06:15:56.884Z,978.34
2019-03-06T06:16:56.883Z,978.24
2019-03-06T06:17:56.879Z,978.21
2019-03-06T06:18:56.819Z,978.26
2019-03-06T06:19:56.817Z,978.19
2019-03-06T06:20:57.010Z,978.19
2019-03-06T06:21:56.805Z,978.15
2019-03-06T06:22:56.847Z,978.12
2019-03-06T06:23:56.801Z,978.11
2019-03-06T06:24:56.831Z,978.10
2019-03-06T06:25:56.804Z,978.07
2019-03-06T06:26:56.738Z,978.03
2019-03-06T06:27:56.766Z,978.01
2019-03-06T06:28:56.736Z,978.09
2019-03-06T06:29:56.710Z,977.98
2019-03-06T06:30:56.863Z,977.97
2019-03-06T06:31:56.727Z,978.02
2019-03-06T06:32:56.682Z,977.99
2019-03-06T06:33:56.687Z,977.98
2019-03-06T06:34:56.666Z,977.99
2019-03-06T06:35:56.650Z,978.02
2019-03-06T06:36:56.722Z,978.02
2019-03-06T06:37:56.685Z,978.05
2019-03-06T06:38:56.617Z,978.00
2019-03-06T06:39:56.618Z,977.96
2019-03-06T06:40:56.580Z,977.94
2019-03-06T06:41:56.569Z,977.92
2019-03-06T06:42:56.707Z,977.89
2019-03-06T06:43:56.564Z,977.89
2019-03-06T06:44:56.629Z,977.90
2019-03-06T06:45:56.603Z,977.86
2019-03-06T06:46:56.587Z,977.81
2019-03-06T06:47:56.561Z,977.78
2019-03-06T06:48:56.514Z,977.79
2019-03-06T06:49:56.583Z,977.79
2019-03-06T06:51:01.581Z,977.77
2019-03-06T06:51:57.475Z,977.71
2019-03-06T06:52:56.458Z,977.71
2019-03-06T06:53:56.509Z,977.74
2019-03-06T06:54:56.475Z,977.69
2019-03-06T06:55:56.451Z,977.70
2019-03-06T06:56:56.440Z,977.69
2019-03-06T06:57:56.450Z,977.68
2019-03-06T06:58:56.405Z,977.57
2019-03-06T06:59:56.484Z,977.59
2019-03-06T07:00:56.401Z,977.55
2019-03-06T07:01:56.366Z,977.58
2019-03-06T07:02:56.377Z,977.55
2019-03-06T07:03:56.397Z,977.54
2019-03-06T07:04:56.393Z,977.52
2019-03-06T07:05:56.401Z,977.51
2019-03-06T07:06:56.437Z,977.45
2019-03-06T07:07:56.294Z,977.43
2019-03-06T07:08:56.291Z,977.45
2019-03-06T07:09:56.339Z,977.40
2019-03-06T07:10:56.259Z,977.41
2019-03-06T07:11:56.256Z,977.40
2019-03-06T07:12:56.332Z,977.35
2019-03-06T07:13:56.324Z,977.38
2019-03-06T07:14:56.242Z,977.30
2019-03-06T07:15:56.246Z,977.29
2019-03-06T07:16:57.561Z,977.34
2019-03-06T07:17:56.211Z,977.29
2019-03-06T07:18:56.211Z,977.29
2019-03-06T07:19:56.223Z,977.26
2019-03-06T07:20:56.164Z,977.28
2019-03-06T07:21:56.194Z,977.19
2019-03-06T07:22:56.136Z,977.18
2019-03-06T07:23:56.132Z,977.20
2019-03-06T07:24:58.265Z,977.25
2019-03-06T07:25:56.128Z,977.26
2019-03-06T07:26:56.145Z,977.23
2019-03-06T07:27:56.102Z,977.17
2019-03-06T07:28:56.183Z,977.15
2019-03-06T07:29:56.092Z,977.10
2019-03-06T07:30:56.178Z,977.13
2019-03-06T07:31:56.092Z,977.05
2019-03-06T07:32:56.103Z,977.00
2019-03-06T07:33:56.059Z,977.03
2019-03-06T07:34:56.011Z,977.00
2019-03-06T07:35:56.034Z,976.97
2019-03-06T07:36:56.044Z,977.01
2019-03-06T07:37:55.978Z,976.98
2019-03-06T07:38:56.092Z,976.97
2019-03-06T07:39:55.962Z,976.94
2019-03-06T07:40:56.082Z,976.95
2019-03-06T07:41:55.977Z,976.93
2019-03-06T07:42:55.998Z,977.00
2019-03-06T07:43:55.963Z,976.95
2019-03-06T07:44:55.956Z,976.93
2019-03-06T07:45:55.953Z,976.95
2019-03-06T07:46:55.886Z,976.91
2019-03-06T07:47:55.904Z,976.89
2019-03-06T07:48:55.919Z,976.90
2019-03-06T07:49:55.983Z,976.92
2019-03-06T07:50:55.960Z,976.95
2019-03-06T07:51:55.888Z,976.89
2019-03-06T07:52:55.846Z,977.01
2019-03-06T07:53:55.813Z,976.95
2019-03-06T07:54:55.833Z,977.02
2019-03-06T07:55:55.836Z,976.97
2019-03-06T07:56:55.811Z,976.91
2019-03-06T07:57:55.811Z,976.88
2019-03-06T07:58:55.789Z,976.98
2019-03-06T07:59:55.744Z,976.92
2019-03-06T08:00:55.753Z,976.86
2019-03-06T08:01:55.763Z,976.95
2019-03-06T08:02:55.784Z,976.90
2019-03-06T08:03:55.755Z,976.96
2019-03-06T08:04:55.749Z,976.88
2019-03-06T08:05:55.737Z,976.93
2019-03-06T08:06:56.057Z,976.92
2019-03-06T08:07:55.705Z,976.93
2019-03-06T08:08:55.648Z,976.94
2019-03-06T08:09:55.653Z,976.85
2019-03-06T08:10:55.643Z,976.88
2019-03-06T08:11:55.666Z,976.91
2019-03-06T08:12:55.700Z,976.90
2019-03-06T08:13:55.667Z,976.82
2019-03-06T08:14:55.629Z,976.79
2019-03-06T08:15:55.628Z,976.80
2019-03-06T08:16:55.589Z,976.77
2019-03-06T08:17:55.599Z,976.69
2019-03-06T08:18:56.037Z,976.72
2019-03-06T08:19:55.569Z,976.66
2019-03-06T08:20:55.518Z,976.69
2019-03-06T08:21:55.594Z,976.65
2019-03-06T08:22:55.527Z,976.60
2019-03-06T08:23:55.549Z,976.62
2019-03-06T08:24:55.491Z,976.57
2019-03-06T08:25:55.491Z,976.58
2019-03-06T08:26:55.510Z,976.62
2019-03-06T08:27:55.539Z,976.61
2019-03-06T08:28:55.452Z,976.60
2019-03-06T08:29:55.481Z,976.62
2019-03-06T08:30:55.551Z,976.62
2019-03-06T08:31:55.454Z,976.54
2019-03-06T08:32:55.412Z,976.57
2019-03-06T08:33:55.400Z,976.46
2019-03-06T08:34:55.396Z,976.44
2019-03-06T08:35:55.368Z,976.46
2019-03-06T08:36:55.371Z,976.49
2019-03-06T08:37:55.368Z,976.52
2019-03-06T08:38:55.328Z,976.48
2019-03-06T08:39:55.394Z,976.51
2019-03-06T08:41:03.914Z,976.43
2019-03-06T08:41:56.353Z,976.46
2019-03-06T08:42:55.300Z,976.41
2019-03-06T08:43:55.278Z,976.42
2019-03-06T08:44:55.270Z,976.47
2019-03-06T08:45:55.254Z,976.43
2019-03-06T08:46:55.298Z,976.39
2019-03-06T08:47:55.281Z,976.43
2019-03-06T08:48:55.267Z,976.39
2019-03-06T08:49:55.321Z,976.36
2019-03-06T08:50:55.202Z,976.34
2019-03-06T08:51:56.178Z,976.26
2019-03-06T08:52:55.192Z,976.33
2019-03-06T08:53:55.161Z,976.31
2019-03-06T08:54:55.172Z,976.35
2019-03-06T08:55:55.145Z,976.35
2019-03-06T08:56:55.131Z,976.30
2019-03-06T08:57:55.125Z,976.36
2019-03-06T08:58:55.128Z,976.34
2019-03-06T08:59:55.105Z,976.29
2019-03-06T09:00:55.090Z,976.34
2019-03-06T09:02:00.539Z,976.28
2019-03-06T09:02:56.142Z,976.32
2019-03-06T09:03:55.057Z,976.28
2019-03-06T09:04:55.050Z,976.36
2019-03-06T09:05:55.041Z,976.36
2019-03-06T09:06:55.060Z,976.24
2019-03-06T09:07:55.022Z,976.22
2019-03-06T09:08:55.132Z,976.14
2019-03-06T09:09:55.097Z,976.26
2019-03-06T09:11:02.415Z,976.26
2019-03-06T09:11:56.049Z,976.21
2019-03-06T09:12:54.968Z,976.21
2019-03-06T09:13:54.971Z,976.23
2019-03-06T09:14:54.942Z,976.18
2019-03-06T09:15:54.959Z,976.16
2019-03-06T09:16:54.962Z,976.14
2019-03-06T09:17:54.908Z,976.10
2019-03-06T09:18:54.896Z,976.09
2019-03-06T09:19:54.887Z,976.07
2019-03-06T09:20:54.891Z,976.13
2019-03-06T09:21:54.882Z,976.03
2019-03-06T09:22:54.853Z,976.02
2019-03-06T09:23:54.847Z,975.98
2019-03-06T09:24:54.833Z,976.00
2019-03-06T09:25:54.845Z,976.01
2019-03-06T09:26:54.812Z,975.96
2019-03-06T09:27:54.816Z,975.93
2019-03-06T09:29:00.966Z,975.95
2019-03-06T09:29:55.777Z,975.98
2019-03-06T09:30:54.805Z,975.85
2019-03-06T09:31:54.762Z,975.86
2019-03-06T09:32:54.753Z,975.87
2019-03-06T09:33:54.769Z,975.85
2019-03-06T09:34:54.728Z,975.90
2019-03-06T09:35:54.716Z,975.83
2019-03-06T09:36:54.734Z,975.81
2019-03-06T09:37:54.691Z,975.83
2019-03-06T09:38:54.686Z,975.84
2019-03-06T09:39:54.697Z,975.73
2019-03-06T09:40:54.717Z,975.62
2019-03-06T09:41:54.659Z,975.69
2019-03-06T09:42:54.656Z,975.61
2019-03-06T09:43:54.632Z,975.62
2019-03-06T09:44:54.637Z,975.52
2019-03-06T09:45:54.696Z,975.36
2019-03-06T09:46:55.175Z,975.47
2019-03-06T09:47:54.585Z,975.39
2019-03-06T09:48:54.595Z,975.35
2019-03-06T09:49:54.579Z,975.40
2019-03-06T09:50:54.573Z,975.35
2019-03-06T09:51:54.541Z,975.34
2019-03-06T09:52:54.570Z,975.27
2019-03-06T09:53:54.519Z,975.21
2019-03-06T09:54:55.158Z,975.24
2019-03-06T09:55:54.498Z,975.27
2019-03-06T09:56:54.513Z,975.27
2019-03-06T09:57:54.502Z,975.18
2019-03-06T09:58:54.509Z,975.09
2019-03-06T09:59:54.507Z,975.08
2019-03-06T10:00:54.498Z,975.10
2019-03-06T10:01:54.507Z,975.08
2019-03-06T10:02:54.474Z,975.09
2019-03-06T10:03:54.477Z,974.99
2019-03-06T10:04:54.415Z,974.94
2019-03-06T10:05:54.437Z,974.88
2019-03-06T10:06:54.438Z,974.90
2019-03-06T10:07:54.461Z,974.88
2019-03-06T10:08:54.371Z,974.90
2019-03-06T10:09:59.120Z,974.85
2019-03-06T10:10:57.830Z,974.89
2019-03-06T10:11:54.406Z,974.95
2019-03-06T10:12:54.392Z,974.94
2019-03-06T10:13:54.328Z,974.90
2019-03-06T10:14:54.325Z,974.89
2019-03-06T10:15:54.290Z,974.95
2019-03-06T10:16:54.357Z,974.90
2019-03-06T10:17:54.323Z,974.91
2019-03-06T10:18:54.317Z,974.90
2019-03-06T10:19:54.257Z,974.88
2019-03-06T10:20:54.250Z,974.88
2019-03-06T10:21:54.282Z,974.95
2019-03-06T10:22:54.918Z,974.95
2019-03-06T10:23:55.236Z,974.84
2019-03-06T10:24:55.710Z,974.94
2019-03-06T10:25:54.255Z,974.96
2019-03-06T10:26:54.175Z,974.96
2019-03-06T10:27:54.233Z,975.03
2019-03-06T10:28:54.164Z,975.07
2019-03-06T10:29:54.162Z,975.05
2019-03-06T10:31:02.147Z,975.06
2019-03-06T10:31:55.114Z,975.05
2019-03-06T10:32:54.223Z,975.00
2019-03-06T10:33:54.098Z,975.03
2019-03-06T10:34:55.107Z,975.02
2019-03-06T10:35:54.092Z,975.00
2019-03-06T10:36:54.158Z,974.96
2019-03-06T10:37:54.059Z,975.04
2019-03-06T10:38:54.043Z,974.98
2019-03-06T10:39:54.063Z,975.04
2019-03-06T10:40:54.019Z,974.96
2019-03-06T10:41:54.012Z,974.91
2019-03-06T10:42:54.044Z,974.93
2019-03-06T10:43:54.314Z,974.77
2019-03-06T10:44:54.144Z,974.70
2019-03-06T10:45:54.040Z,974.76
2019-03-06T10:46:54.057Z,974.78
2019-03-06T10:47:53.944Z,974.74
2019-03-06T10:48:53.931Z,974.74
2019-03-06T10:49:53.987Z,974.79
2019-03-06T10:50:54.011Z,974.71
2019-03-06T10:51:54.110Z,974.81
2019-03-06T10:52:53.895Z,974.71
2019-03-06T10:53:53.889Z,974.75
2019-03-06T10:54:53.902Z,974.67
2019-03-06T10:55:53.854Z,974.77
2019-03-06T10:56:53.849Z,974.77
2019-03-06T10:57:57.459Z,974.79
2019-03-06T10:58:53.846Z,974.71
2019-03-06T10:59:53.809Z,974.67
2019-03-06T11:00:53.868Z,974.67
2019-03-06T11:01:53.871Z,974.68
2019-03-06T11:02:53.817Z,974.69
2019-03-06T11:03:53.794Z,974.69
2019-03-06T11:04:53.770Z,974.62
2019-03-06T11:05:53.767Z,974.58
2019-03-06T11:06:53.749Z,974.69
2019-03-06T11:07:53.772Z,974.56
2019-03-06T11:08:53.710Z,974.70
2019-03-06T11:09:53.734Z,974.54
2019-03-06T11:10:53.704Z,974.57
2019-03-06T11:11:53.690Z,974.64
2019-03-06T11:12:53.668Z,974.60
2019-03-06T11:13:53.659Z,974.63
2019-03-06T11:14:53.647Z,974.64
2019-03-06T11:15:55.897Z,974.55
2019-03-06T11:16:53.650Z,974.54
2019-03-06T11:17:53.618Z,974.50
2019-03-06T11:18:53.625Z,974.49
2019-03-06T11:19:53.598Z,974.44
2019-03-06T11:20:53.586Z,974.49
2019-03-06T11:21:53.607Z,974.43
2019-03-06T11:22:53.568Z,974.42
2019-03-06T11:23:53.599Z,974.42
2019-03-06T11:24:53.547Z,974.34
2019-03-06T11:25:53.619Z,974.39
2019-03-06T11:26:53.546Z,974.43
2019-03-06T11:27:53.532Z,974.34
2019-03-06T11:28:53.556Z,974.29
2019-03-06T11:29:53.485Z,974.32
2019-03-06T11:30:53.489Z,974.32
2019-03-06T11:31:53.497Z,974.31
2019-03-06T11:32:54.458Z,974.27
2019-03-06T11:33:53.465Z,974.24
2019-03-06T11:34:53.431Z,974.13
2019-03-06T11:35:53.420Z,974.11
2019-03-06T11:36:53.491Z,974.23
2019-03-06T11:37:53.480Z,974.18
2019-03-06T11:38:53.501Z,974.16
2019-03-06T11:39:53.452Z,974.24
2019-03-06T11:40:53.471Z,974.15
2019-03-06T11:41:53.387Z,974.10
2019-03-06T11:42:53.353Z,974.05
2019-03-06T11:43:53.361Z,974.08
2019-03-06T11:44:53.333Z,974.01
2019-03-06T11:45:53.331Z,974.06
2019-03-06T11:46:53.308Z,973.96
2019-03-06T11:47:53.363Z,973.97
2019-03-06T11:48:53.320Z,974.02
2019-03-06T11:49:53.323Z,974.02
2019-03-06T11:50:53.365Z,974.01
2019-03-06T11:51:53.317Z,973.96
2019-03-06T11:52:53.335Z,973.99
2019-03-06T11:53:53.361Z,973.95
2019-03-06T11:54:53.280Z,973.88
2019-03-06T11:55:53.238Z,973.91
2019-03-06T11:56:53.230Z,973.84
2019-03-06T11:57:53.395Z,973.74
2019-03-06T11:58:53.197Z,973.74
2019-03-06T11:59:53.167Z,973.68
2019-03-06T12:00:53.165Z,973.75
2019-03-06T12:01:53.212Z,973.70
2019-03-06T12:02:53.134Z,973.57
2019-03-06T12:03:53.119Z,973.46
2019-03-06T12:04:53.110Z,973.46
2019-03-06T12:05:53.119Z,973.48
2019-03-06T12:06:53.085Z,973.41
2019-03-06T12:07:53.217Z,973.42
2019-03-06T12:08:53.091Z,973.41
2019-03-06T12:09:53.056Z,973.44
2019-03-06T12:10:53.068Z,973.42
2019-03-06T12:11:53.061Z,973.31
2019-03-06T12:12:53.023Z,973.32
2019-03-06T12:13:53.024Z,973.29
2019-03-06T12:14:53.005Z,973.22
2019-03-06T12:15:52.988Z,973.26
2019-03-06T12:16:52.980Z,973.25
2019-03-06T12:17:53.044Z,973.22
2019-03-06T12:18:52.988Z,973.19
2019-03-06T12:19:52.952Z,973.19
2019-03-06T12:20:52.948Z,973.12
2019-03-06T12:21:52.930Z,973.05
2019-03-06T12:22:52.941Z,973.08
2019-03-06T12:23:52.929Z,973.14
2019-03-06T12:24:52.900Z,973.18
2019-03-06T12:25:52.966Z,973.24
2019-03-06T12:26:52.878Z,973.24
2019-03-06T12:27:52.888Z,973.23